Melina II — SV5530 — position and weather

sailwx.info

Track history (hours):
 
Tides and Currents Weather Stations Pressure Air Temp Water Temp Dewpoint Dewpoint Depression Visibility Wind Speed Wind Dir Waves Ship Positions

Melina II

Last reported at 2018-Jun-08 16:01 UTC. Time now 2018-Jun-19 04:43 UTC.
Position N 38°04' E 022°45'.
Warning: this ship's position is 10 days out of date.

Length 72 m; draft 1.8 m.

Type: Cargo ship. MMSI: 237009900.

Date/timePositionNaut miles runAvg speedWind from/ knotsBaromVisibWave heightAir tempDewpointWater temp
2018-Jun-08 16:01N 38°04' E 022°45'210.4
2018-Jun-08 15:48N 38°03' E 022°47'310.3
2018-Jun-08 15:29N 38°01' E 022°50'510.1
2018-Jun-08 15:00N 37°58' E 022°55'5 6.1
2018-Jun-08 14:14N 37°55' E 023°00'1 4.4
2018-Jun-08 14:00N 37°55' E 023°01'1 2.2
2018-Jun-08 13:30N 37°54' E 023°03'4 7.7
2018-Jun-08 13:00N 37°54' E 023°07'5 9.3
2018-Jun-08 12:30N 37°55' E 023°13'5 9.7
2018-Jun-08 12:00N 37°56' E 023°19'5 9.4
2018-Jun-08 11:30N 37°57' E 023°25'3 6.9
2018-Jun-08 11:00N 38°00' E 023°27'5 9.3
2018-Jun-08 10:30N 38°02' E 023°33'1 0.1
2018-Jun-08 04:04N 38°02' E 023°33'0 0.0
2018-Jun-08 04:00N 38°02' E 023°33'2 4.8
2018-Jun-08 03:30N 37°60' E 023°33'4 7.8
2018-Jun-08 03:00N 37°56' E 023°35'5 9.2
2018-Jun-08 02:30N 37°52' E 023°37'5 9.1
2018-Jun-08 02:00N 37°48' E 023°41'5 9.4
2018-Jun-08 01:30N 37°44' E 023°44'5 9.3
2018-Jun-08 00:58N 37°40' E 023°47'46 9.2
2018-Jun-07 20:02N 37°31' E 024°44'0 9.6
2018-Jun-07 20:00N 37°31' E 024°44'5 9.6
2018-Jun-07 19:27N 37°31' E 024°51'5 9.0
2018-Jun-07 18:56N 37°30' E 024°57'4 8.6
2018-Jun-07 18:30N 37°27' E 024°58'1 0.2
2018-Jun-07 15:07N 37°26' E 024°57'1 9.4
2018-Jun-07 15:00N 37°25' E 024°58'10 9.7
2018-Jun-07 13:57N 37°18' E 025°07'410.0
2018-Jun-07 13:30N 37°15' E 025°11'5 9.6
2018-Jun-07 13:00N 37°12' E 025°16'5 9.2
2018-Jun-07 12:30N 37°09' E 025°20'3 6.1
2018-Jun-07 12:00N 37°06' E 025°22'0 0.2
2018-Jun-07 11:30N 37°06' E 025°22'0 0.0
2018-Jun-07 11:00N 37°06' E 025°22'0 0.1
2018-Jun-07 10:30N 37°06' E 025°22'1 1.0
2018-Jun-07 10:00N 37°06' E 025°22'4 7.7
2018-Jun-07 09:30N 37°04' E 025°19'102 6.4
2018-Jun-06 17:27N 35°28' E 024°32'4 9.5
2018-Jun-06 17:00N 35°25' E 024°29'2 4.6
2018-Jun-06 16:30N 35°22' E 024°29'0 0.0
2018-Jun-06 16:00N 35°22' E 024°29'0 0.0
2018-Jun-06 15:30N 35°22' E 024°29'0 0.0
2018-Jun-06 15:00N 35°22' E 024°29'0 0.0
2018-Jun-06 14:30N 35°22' E 024°29'0 0.0
2018-Jun-06 14:00N 35°22' E 024°29'0 0.0
2018-Jun-06 13:30N 35°22' E 024°29'0 0.0
2018-Jun-06 13:00N 35°22' E 024°29'0 0.0
2018-Jun-06 12:30N 35°22' E 024°29'0 0.0
2018-Jun-06 12:00N 35°22' E 024°29'0 0.0
2018-Jun-06 11:30N 35°22' E 024°29'0 0.0
2018-Jun-06 11:00N 35°22' E 024°29'0 0.0
2018-Jun-06 10:30N 35°22' E 024°29'0 0.0
2018-Jun-06 10:00N 35°22' E 024°29'0 0.0
2018-Jun-06 09:30N 35°22' E 024°29'3 6.3
2018-Jun-06 09:00N 35°25' E 024°28'5 9.7
2018-Jun-06 08:30N 35°30' E 024°26'83 9.4
2018-Jun-05 23:38N 36°51' E 024°00'25 9.4
2018-Jun-05 21:01N 37°14' E 023°52'0 9.7
2018-Jun-05 21:00N 37°14' E 023°51'8 9.6
2018-Jun-05 20:13N 37°22' E 023°49'2 9.6
2018-Jun-05 20:00N 37°24' E 023°48'5 9.7
2018-Jun-05 19:30N 37°28' E 023°46'5 9.4
2018-Jun-05 19:00N 37°33' E 023°44'5 9.3
2018-Jun-05 18:30N 37°37' E 023°43'5 9.3
2018-Jun-05 18:00N 37°41' E 023°41'5 9.3
2018-Jun-05 17:30N 37°46' E 023°38'10 8.7
2018-Jun-05 16:24N 37°55' E 023°35'3 7.3
2018-Jun-05 16:00N 37°57' E 023°33'4 8.6
2018-Jun-05 15:30N 38°02' E 023°33'1 1.0
2018-Jun-05 15:00N 38°02' E 023°33'0 0.0
2018-Jun-05 14:30N 38°02' E 023°33'0 0.0
2018-Jun-05 14:00N 38°02' E 023°33'0 0.0
2018-Jun-05 13:30N 38°02' E 023°33'0 0.0
2018-Jun-05 13:00N 38°02' E 023°33'0 0.0
2018-Jun-05 12:30N 38°02' E 023°33'0 0.0
2018-Jun-05 12:00N 38°02' E 023°33'0 0.0
2018-Jun-05 11:30N 38°02' E 023°33'0 0.0
2018-Jun-05 11:00N 38°02' E 023°33'0 0.0
2018-Jun-05 10:30N 38°02' E 023°33'0 0.0
2018-Jun-05 10:00N 38°02' E 023°33'0 0.0
2018-Jun-05 09:30N 38°02' E 023°33'0 0.0
2018-Jun-05 09:00N 38°02' E 023°33'0 0.0
2018-Jun-05 08:29N 38°02' E 023°33'0 0.0
2018-Jun-05 08:00N 38°02' E 023°33'0 0.0
2018-Jun-05 07:30N 38°02' E 023°33'0 0.0
2018-Jun-05 07:00N 38°02' E 023°33'0 0.0
2018-Jun-05 06:30N 38°02' E 023°33'0 0.0
2018-Jun-05 06:00N 38°02' E 023°33'0 0.0
2018-Jun-05 05:30N 38°02' E 023°33'0 0.0
2018-Jun-05 05:00N 38°02' E 023°33'0 0.0
2018-Jun-05 04:31N 38°02' E 023°33'0 0.0
2018-Jun-05 04:00N 38°02' E 023°33'0 0.0
2018-Jun-05 03:30N 38°02' E 023°33'0 0.0
2018-Jun-05 03:00N 38°02' E 023°33'0 0.0
2018-Jun-05 02:30N 38°02' E 023°33'0 0.0
2018-Jun-05 02:00N 38°02' E 023°33'0 0.0
2018-Jun-05 01:30N 38°02' E 023°33'0 0.0
2018-Jun-05 01:00N 38°02' E 023°33'0 0.0
2018-Jun-05 00:30N 38°02' E 023°33'0 0.0
2018-Jun-05 00:00N 38°02' E 023°33'0 0.0
2018-Jun-04 23:30N 38°02' E 023°33'0 0.0
2018-Jun-04 23:00N 38°02' E 023°33'0 0.0
2018-Jun-04 22:30N 38°02' E 023°33'0 0.0
2018-Jun-04 22:00N 38°02' E 023°33'0 0.0
2018-Jun-04 21:30N 38°02' E 023°33'0 0.0
2018-Jun-04 21:00N 38°02' E 023°33'0 0.0
2018-Jun-04 20:30N 38°02' E 023°33'0 0.0
2018-Jun-04 20:00N 38°02' E 023°33'0 0.0
2018-Jun-04 19:30N 38°02' E 023°33'0 0.0
2018-Jun-04 19:00N 38°02' E 023°33'0 0.0
2018-Jun-04 18:30N 38°02' E 023°33'0 0.0
2018-Jun-04 18:00N 38°02' E 023°33'0 0.0
2018-Jun-04 17:30N 38°02' E 023°33'0 0.0
2018-Jun-04 17:00N 38°02' E 023°33'0 0.0
2018-Jun-04 16:30N 38°02' E 023°33'0 0.0
2018-Jun-04 16:00N 38°02' E 023°33'0 0.0
2018-Jun-04 15:30N 38°02' E 023°33'0 0.0
2018-Jun-04 15:00N 38°02' E 023°33'0 0.0
2018-Jun-04 14:30N 38°02' E 023°33'0 0.0
2018-Jun-04 14:00N 38°02' E 023°33'0 0.0
2018-Jun-04 13:30N 38°02' E 023°33'0 0.0
2018-Jun-04 13:00N 38°02' E 023°33'0 0.0
2018-Jun-04 12:30N 38°02' E 023°33'0 0.0
2018-Jun-04 12:00N 38°02' E 023°33'0 0.0
2018-Jun-04 11:30N 38°02' E 023°33'0 0.0
2018-Jun-04 11:00N 38°02' E 023°33'0 0.0
2018-Jun-04 10:30N 38°02' E 023°33'0 0.0
2018-Jun-04 10:00N 38°02' E 023°33'0 0.0
2018-Jun-04 09:30N 38°02' E 023°33'0 0.0
2018-Jun-04 09:00N 38°02' E 023°33'0 0.0
2018-Jun-04 08:30N 38°02' E 023°33'0 0.0
2018-Jun-04 08:00N 38°02' E 023°33'0 0.0
2018-Jun-04 07:30N 38°02' E 023°33'0 0.0
2018-Jun-04 07:00N 38°02' E 023°33'0 0.0
2018-Jun-04 06:30N 38°02' E 023°33'0 0.0
2018-Jun-04 06:00N 38°02' E 023°33'0 0.0
2018-Jun-04 05:30N 38°02' E 023°33'0 0.0
2018-Jun-04 05:01N 38°02' E 023°33'0 0.0
2018-Jun-04 04:30N 38°02' E 023°33'0 0.0
2018-Jun-04 04:00N 38°02' E 023°33'0 0.0
2018-Jun-04 03:30N 38°02' E 023°33'0 0.0
2018-Jun-04 03:00N 38°02' E 023°33'0 0.0
2018-Jun-04 02:30N 38°02' E 023°33'0 0.0
2018-Jun-04 02:00N 38°02' E 023°33'0 0.0
2018-Jun-04 01:30N 38°02' E 023°33'0 0.0
2018-Jun-04 01:01N 38°02' E 023°33'0 0.0
2018-Jun-04 00:30N 38°02' E 023°33'0 0.0
2018-Jun-04 00:00N 38°02' E 023°33'0 0.0
2018-Jun-03 23:30N 38°02' E 023°33'0 0.0
2018-Jun-03 23:00N 38°02' E 023°33'0 0.0
2018-Jun-03 22:30N 38°02' E 023°33'0 0.0
2018-Jun-03 22:00N 38°02' E 023°33'0 0.0
2018-Jun-03 21:30N 38°02' E 023°33'0 0.0
2018-Jun-03 20:59N 38°02' E 023°33'0 0.0
2018-Jun-03 20:30N 38°02' E 023°33'0 0.0
2018-Jun-03 20:00N 38°02' E 023°33'0 0.0
2018-Jun-03 19:31N 38°02' E 023°33'0 0.0
2018-Jun-03 19:00N 38°02' E 023°33'0 0.0
2018-Jun-03 18:30N 38°02' E 023°33'0 0.0
2018-Jun-03 18:00N 38°02' E 023°33'0 0.0
2018-Jun-03 17:30N 38°02' E 023°33'0 0.0
2018-Jun-03 17:00N 38°02' E 023°33'0 0.0
2018-Jun-03 16:30N 38°02' E 023°33'0 0.0
2018-Jun-03 16:00N 38°02' E 023°33'0 0.0
2018-Jun-03 15:30N 38°02' E 023°33'0 0.0
2018-Jun-03 15:00N 38°02' E 023°33'0 0.0
2018-Jun-03 14:30N 38°02' E 023°33'0 0.0
2018-Jun-03 14:00N 38°02' E 023°33'0 0.0
2018-Jun-03 13:30N 38°02' E 023°33'0 0.0
2018-Jun-03 13:00N 38°02' E 023°33'0 0.0
2018-Jun-03 12:30N 38°02' E 023°33'0 0.0
2018-Jun-03 12:00N 38°02' E 023°33'0 0.0
2018-Jun-03 11:30N 38°02' E 023°33'0 0.0
2018-Jun-03 11:00N 38°02' E 023°33'0 0.0
2018-Jun-03 10:30N 38°02' E 023°33'0 0.0
2018-Jun-03 10:00N 38°02' E 023°33'0 0.0
2018-Jun-03 09:30N 38°02' E 023°33'0 0.0
2018-Jun-03 09:00N 38°02' E 023°33'0 0.0
2018-Jun-03 08:30N 38°02' E 023°33'0 0.0
2018-Jun-03 08:01N 38°02' E 023°33'0 0.0
2018-Jun-03 07:30N 38°02' E 023°33'0 0.0
2018-Jun-03 07:00N 38°02' E 023°33'0 0.0
2018-Jun-03 06:30N 38°02' E 023°33'0 0.0
2018-Jun-03 06:00N 38°02' E 023°33'0 0.0
2018-Jun-03 05:30N 38°02' E 023°33'0 0.0
2018-Jun-03 05:00N 38°02' E 023°33'0 0.0
2018-Jun-03 04:30N 38°02' E 023°33'0 0.0
2018-Jun-03 04:00N 38°02' E 023°33'0 0.0
2018-Jun-03 03:30N 38°02' E 023°33'0 0.0
2018-Jun-03 03:00N 38°02' E 023°33'0 0.0
2018-Jun-03 02:31N 38°02' E 023°33'0 0.0
2018-Jun-03 02:00N 38°02' E 023°33'0 0.0
2018-Jun-03 01:30N 38°02' E 023°33'0 0.0
2018-Jun-03 01:00N 38°02' E 023°33'0 0.0
2018-Jun-03 00:30N 38°02' E 023°33'0 0.0
2018-Jun-03 00:00N 38°02' E 023°33'0 0.0
2018-Jun-02 23:31N 38°02' E 023°33'0 0.0
2018-Jun-02 23:00N 38°02' E 023°33'0 0.0
2018-Jun-02 22:31N 38°02' E 023°33'0 0.0
2018-Jun-02 22:01N 38°02' E 023°33'0 0.0
2018-Jun-02 21:30N 38°02' E 023°33'0 0.0
2018-Jun-02 21:00N 38°02' E 023°33'0 0.0
2018-Jun-02 20:30N 38°02' E 023°33'0 0.0
2018-Jun-02 20:01N 38°02' E 023°33'0 0.0
2018-Jun-02 19:30N 38°02' E 023°33'0 0.0
2018-Jun-02 19:00N 38°02' E 023°33'0 0.0
2018-Jun-02 18:30N 38°02' E 023°33'0 0.0
2018-Jun-02 18:00N 38°02' E 023°33'0 0.0
2018-Jun-02 17:30N 38°02' E 023°33'0 0.0
2018-Jun-02 17:00N 38°02' E 023°33'0 0.0
2018-Jun-02 16:30N 38°02' E 023°33'0 0.0
2018-Jun-02 16:01N 38°02' E 023°33'0 0.0
2018-Jun-02 15:31N 38°02' E 023°33'0 0.0
2018-Jun-02 15:00N 38°02' E 023°33'0 0.0
2018-Jun-02 14:29N 38°02' E 023°33'0 0.0
2018-Jun-02 13:59N 38°02' E 023°33'0 0.0
2018-Jun-02 13:30N 38°02' E 023°33'0 0.0
2018-Jun-02 13:00N 38°02' E 023°33'0 0.0
2018-Jun-02 12:30N 38°02' E 023°33'0 0.0
2018-Jun-02 12:00N 38°02' E 023°33'0 0.0
2018-Jun-02 11:30N 38°02' E 023°33'0 0.0
2018-Jun-02 11:01N 38°02' E 023°33'0 0.0
2018-Jun-02 10:30N 38°02' E 023°33'0 0.0
2018-Jun-02 10:01N 38°02' E 023°33'0 0.0
2018-Jun-02 09:30N 38°02' E 023°33'0 0.0
2018-Jun-02 09:00N 38°02' E 023°33'0 0.0
2018-Jun-02 08:29N 38°02' E 023°33'0 0.0
2018-Jun-02 08:00N 38°02' E 023°33'0 0.0
2018-Jun-02 07:30N 38°02' E 023°33'0 0.0
2018-Jun-02 07:00N 38°02' E 023°33'0 0.0
2018-Jun-02 06:30N 38°02' E 023°33'0 0.0
2018-Jun-02 05:58N 38°02' E 023°33'0 0.0
2018-Jun-02 05:30N 38°02' E 023°33'0 0.0
2018-Jun-02 05:00N 38°02' E 023°33'0 0.0
2018-Jun-02 04:30N 38°02' E 023°33'0 0.0
2018-Jun-02 04:00N 38°02' E 023°33'0 0.0
2018-Jun-02 03:30N 38°02' E 023°33'0 0.0
2018-Jun-02 03:00N 38°02' E 023°33'0 0.0
2018-Jun-02 02:30N 38°02' E 023°33'0 0.0
2018-Jun-02 02:00N 38°02' E 023°33'0 0.0
2018-Jun-02 01:30N 38°02' E 023°33'0 0.0
2018-Jun-02 01:00N 38°02' E 023°33'0 0.0
2018-Jun-02 00:30N 38°02' E 023°33'0 0.0
2018-Jun-02 00:00N 38°02' E 023°33'0 0.0
2018-Jun-01 23:30N 38°02' E 023°33'0 0.0
2018-Jun-01 23:00N 38°02' E 023°33'0 0.0
2018-Jun-01 22:30N 38°02' E 023°33'0 0.0
2018-Jun-01 22:00N 38°02' E 023°33'0 0.0
2018-Jun-01 21:30N 38°02' E 023°33'0 0.0
2018-Jun-01 21:00N 38°02' E 023°33'0 0.0
2018-Jun-01 20:30N 38°02' E 023°33'0 0.0
2018-Jun-01 20:00N 38°02' E 023°33'0 0.0
2018-Jun-01 19:30N 38°02' E 023°33'0 0.0
2018-Jun-01 19:00N 38°02' E 023°33'0 0.0
2018-Jun-01 18:30N 38°02' E 023°33'0 0.0
2018-Jun-01 17:59N 38°02' E 023°33'0 0.0
2018-Jun-01 17:30N 38°02' E 023°33'0 0.0
2018-Jun-01 17:00N 38°02' E 023°33'0 0.0
2018-Jun-01 16:30N 38°02' E 023°33'0 0.0
2018-Jun-01 16:00N 38°02' E 023°33'0 0.0
2018-Jun-01 15:30N 38°02' E 023°33'0 0.0
2018-Jun-01 15:00N 38°02' E 023°33'0 0.0
2018-Jun-01 14:30N 38°02' E 023°33'2 4.3
2018-Jun-01 14:00N 38°00' E 023°33'4 7.7
2018-Jun-01 13:30N 37°56' E 023°35'5 9.4
2018-Jun-01 13:00N 37°52' E 023°37'510.0
2018-Jun-01 12:30N 37°48' E 023°41'510.0
2018-Jun-01 12:00N 37°43' E 023°43'61 5.6
2018-Jun-01 01:15N 37°30' E 024°58'2 9.1
2018-Jun-01 01:00N 37°28' E 024°58'6 1.6
2018-May-31 21:34N 37°30' E 025°04'1 9.4
2018-May-31 21:28N 37°30' E 025°05'4 7.7
2018-May-31 20:59N 37°32' E 025°09'0 0.0
2018-May-31 20:30N 37°32' E 025°09'0 0.0
2018-May-31 20:00N 37°32' E 025°09'0 0.0
2018-May-31 19:30N 37°32' E 025°09'0 0.0
2018-May-31 19:00N 37°32' E 025°09'0 0.0
2018-May-31 18:30N 37°32' E 025°09'0 0.6
2018-May-31 18:00N 37°32' E 025°09'4 8.2
2018-May-31 17:30N 37°28' E 025°10'4 8.0
2018-May-31 17:00N 37°24' E 025°11'4 8.4
2018-May-31 16:30N 37°20' E 025°13'4 8.3
2018-May-31 15:59N 37°16' E 025°15'4 8.0
2018-May-31 15:30N 37°13' E 025°17'4 7.5
2018-May-31 15:00N 37°09' E 025°18'4 7.5
2018-May-31 14:30N 37°05' E 025°18'4 7.6
2018-May-31 14:00N 37°02' E 025°19'84 3.8
2018-May-30 15:50N 37°38' E 023°43'3 9.0
2018-May-30 15:30N 37°41' E 023°42'5 9.3
2018-May-30 15:00N 37°45' E 023°40'5 9.6
2018-May-30 14:30N 37°49' E 023°37'5 9.7
2018-May-30 14:00N 37°54' E 023°35'4 8.3
2018-May-30 13:30N 37°58' E 023°33'5 9.2
2018-May-30 13:00N 38°02' E 023°33'0 0.2
2018-May-30 12:31N 38°02' E 023°33'0 0.0
2018-May-30 12:00N 38°02' E 023°33'0 0.0
2018-May-30 11:30N 38°02' E 023°33'0 0.0
2018-May-30 11:00N 38°02' E 023°33'0 0.0
2018-May-30 10:30N 38°02' E 023°33'0 0.0
2018-May-30 10:00N 38°02' E 023°33'0 0.0
2018-May-30 09:30N 38°02' E 023°33'0 0.0
2018-May-30 09:00N 38°02' E 023°33'0 0.0
2018-May-30 08:30N 38°02' E 023°33'0 0.0
2018-May-30 07:59N 38°02' E 023°33'0 0.0
2018-May-30 07:31N 38°02' E 023°33'0 0.0
2018-May-30 07:00N 38°02' E 023°33'0 0.0
2018-May-30 06:30N 38°02' E 023°33'0 0.0
2018-May-30 06:00N 38°02' E 023°33'0 0.0
2018-May-30 05:30N 38°02' E 023°33'0 0.0
2018-May-30 05:00N 38°02' E 023°33'0 0.0
2018-May-30 04:30N 38°02' E 023°33'0 0.0
2018-May-30 04:00N 38°02' E 023°33'0 0.0
2018-May-30 03:30N 38°02' E 023°33'0 0.0
2018-May-30 03:00N 38°02' E 023°33'0 0.0
2018-May-30 02:30N 38°02' E 023°33'0 0.0
2018-May-30 02:00N 38°02' E 023°33'0 0.0
2018-May-30 01:30N 38°02' E 023°33'0 0.0
2018-May-30 01:00N 38°02' E 023°33'0 0.0
2018-May-30 00:30N 38°02' E 023°33'0 0.0
2018-May-30 00:00N 38°02' E 023°33'0 0.0
2018-May-29 23:30N 38°02' E 023°33'0 0.0
2018-May-29 23:00N 38°02' E 023°33'0 0.0
2018-May-29 22:30N 38°02' E 023°33'0 0.0
2018-May-29 22:00N 38°02' E 023°33'0 0.0
2018-May-29 21:30N 38°02' E 023°33'0 0.0
2018-May-29 21:00N 38°02' E 023°33'0 0.0
2018-May-29 20:30N 38°02' E 023°33'0 0.0
2018-May-29 20:00N 38°02' E 023°33'0 0.0
2018-May-29 19:30N 38°02' E 023°33'0 0.0
2018-May-29 19:00N 38°02' E 023°33'0 0.0
2018-May-29 18:30N 38°02' E 023°33'0 0.0
2018-May-29 18:00N 38°02' E 023°33'0 0.0
2018-May-29 17:30N 38°02' E 023°33'0 0.0
2018-May-29 17:00N 38°02' E 023°33'0 0.0
2018-May-29 16:30N 38°02' E 023°33'  
Track history (hours):
 
Tides and Currents Weather Stations Pressure Air Temp Water Temp Dewpoint Dewpoint Depression Visibility Wind Speed Wind Dir Waves Ship Positions

Melina II

Last reported at 2018-Jun-08 16:01 UTC. Time now 2018-Jun-19 04:43 UTC.
Position N 38°04' E 022°45'.
Warning: this ship's position is 10 days out of date.

Length 72 m; draft 1.8 m.

Type: Cargo ship. MMSI: 237009900.

Date/timePositionNaut miles runAvg speedWind from/ knotsBaromVisibWave heightAir tempDewpointWater temp
2018-Jun-08 16:01N 38°04' E 022°45'210.4
2018-Jun-08 15:48N 38°03' E 022°47'310.3
2018-Jun-08 15:29N 38°01' E 022°50'510.1
2018-Jun-08 15:00N 37°58' E 022°55'5 6.1
2018-Jun-08 14:14N 37°55' E 023°00'1 4.4
2018-Jun-08 14:00N 37°55' E 023°01'1 2.2
2018-Jun-08 13:30N 37°54' E 023°03'4 7.7
2018-Jun-08 13:00N 37°54' E 023°07'5 9.3
2018-Jun-08 12:30N 37°55' E 023°13'5 9.7
2018-Jun-08 12:00N 37°56' E 023°19'5 9.4
2018-Jun-08 11:30N 37°57' E 023°25'3 6.9
2018-Jun-08 11:00N 38°00' E 023°27'5 9.3
2018-Jun-08 10:30N 38°02' E 023°33'1 0.1
2018-Jun-08 04:04N 38°02' E 023°33'0 0.0
2018-Jun-08 04:00N 38°02' E 023°33'2 4.8
2018-Jun-08 03:30N 37°60' E 023°33'4 7.8
2018-Jun-08 03:00N 37°56' E 023°35'5 9.2
2018-Jun-08 02:30N 37°52' E 023°37'5 9.1
2018-Jun-08 02:00N 37°48' E 023°41'5 9.4
2018-Jun-08 01:30N 37°44' E 023°44'5 9.3
2018-Jun-08 00:58N 37°40' E 023°47'46 9.2
2018-Jun-07 20:02N 37°31' E 024°44'0 9.6
2018-Jun-07 20:00N 37°31' E 024°44'5 9.6
2018-Jun-07 19:27N 37°31' E 024°51'5 9.0
2018-Jun-07 18:56N 37°30' E 024°57'4 8.6
2018-Jun-07 18:30N 37°27' E 024°58'1 0.2
2018-Jun-07 15:07N 37°26' E 024°57'1 9.4
2018-Jun-07 15:00N 37°25' E 024°58'10 9.7
2018-Jun-07 13:57N 37°18' E 025°07'410.0
2018-Jun-07 13:30N 37°15' E 025°11'5 9.6
2018-Jun-07 13:00N 37°12' E 025°16'5 9.2
2018-Jun-07 12:30N 37°09' E 025°20'3 6.1
2018-Jun-07 12:00N 37°06' E 025°22'0 0.2
2018-Jun-07 11:30N 37°06' E 025°22'0 0.0
2018-Jun-07 11:00N 37°06' E 025°22'0 0.1
2018-Jun-07 10:30N 37°06' E 025°22'1 1.0
2018-Jun-07 10:00N 37°06' E 025°22'4 7.7
2018-Jun-07 09:30N 37°04' E 025°19'102 6.4
2018-Jun-06 17:27N 35°28' E 024°32'4 9.5
2018-Jun-06 17:00N 35°25' E 024°29'2 4.6
2018-Jun-06 16:30N 35°22' E 024°29'0 0.0
2018-Jun-06 16:00N 35°22' E 024°29'0 0.0
2018-Jun-06 15:30N 35°22' E 024°29'0 0.0
2018-Jun-06 15:00N 35°22' E 024°29'0 0.0
2018-Jun-06 14:30N 35°22' E 024°29'0 0.0
2018-Jun-06 14:00N 35°22' E 024°29'0 0.0
2018-Jun-06 13:30N 35°22' E 024°29'0 0.0
2018-Jun-06 13:00N 35°22' E 024°29'0 0.0
2018-Jun-06 12:30N 35°22' E 024°29'0 0.0
2018-Jun-06 12:00N 35°22' E 024°29'0 0.0
2018-Jun-06 11:30N 35°22' E 024°29'0 0.0
2018-Jun-06 11:00N 35°22' E 024°29'0 0.0
2018-Jun-06 10:30N 35°22' E 024°29'0 0.0
2018-Jun-06 10:00N 35°22' E 024°29'0 0.0
2018-Jun-06 09:30N 35°22' E 024°29'3 6.3
2018-Jun-06 09:00N 35°25' E 024°28'5 9.7
2018-Jun-06 08:30N 35°30' E 024°26'83 9.4
2018-Jun-05 23:38N 36°51' E 024°00'25 9.4
2018-Jun-05 21:01N 37°14' E 023°52'0 9.7
2018-Jun-05 21:00N 37°14' E 023°51'8 9.6
2018-Jun-05 20:13N 37°22' E 023°49'2 9.6
2018-Jun-05 20:00N 37°24' E 023°48'5 9.7
2018-Jun-05 19:30N 37°28' E 023°46'5 9.4
2018-Jun-05 19:00N 37°33' E 023°44'5 9.3
2018-Jun-05 18:30N 37°37' E 023°43'5 9.3
2018-Jun-05 18:00N 37°41' E 023°41'5 9.3
2018-Jun-05 17:30N 37°46' E 023°38'10 8.7
2018-Jun-05 16:24N 37°55' E 023°35'3 7.3
2018-Jun-05 16:00N 37°57' E 023°33'4 8.6
2018-Jun-05 15:30N 38°02' E 023°33'1 1.0
2018-Jun-05 15:00N 38°02' E 023°33'0 0.0
2018-Jun-05 14:30N 38°02' E 023°33'0 0.0
2018-Jun-05 14:00N 38°02' E 023°33'0 0.0
2018-Jun-05 13:30N 38°02' E 023°33'0 0.0
2018-Jun-05 13:00N 38°02' E 023°33'0 0.0
2018-Jun-05 12:30N 38°02' E 023°33'0 0.0
2018-Jun-05 12:00N 38°02' E 023°33'0 0.0
2018-Jun-05 11:30N 38°02' E 023°33'0 0.0
2018-Jun-05 11:00N 38°02' E 023°33'0 0.0
2018-Jun-05 10:30N 38°02' E 023°33'0 0.0
2018-Jun-05 10:00N 38°02' E 023°33'0 0.0
2018-Jun-05 09:30N 38°02' E 023°33'0 0.0
2018-Jun-05 09:00N 38°02' E 023°33'0 0.0
2018-Jun-05 08:29N 38°02' E 023°33'0 0.0
2018-Jun-05 08:00N 38°02' E 023°33'0 0.0
2018-Jun-05 07:30N 38°02' E 023°33'0 0.0
2018-Jun-05 07:00N 38°02' E 023°33'0 0.0
2018-Jun-05 06:30N 38°02' E 023°33'0 0.0
2018-Jun-05 06:00N 38°02' E 023°33'0 0.0
2018-Jun-05 05:30N 38°02' E 023°33'0 0.0
2018-Jun-05 05:00N 38°02' E 023°33'0 0.0
2018-Jun-05 04:31N 38°02' E 023°33'0 0.0
2018-Jun-05 04:00N 38°02' E 023°33'0 0.0
2018-Jun-05 03:30N 38°02' E 023°33'0 0.0
2018-Jun-05 03:00N 38°02' E 023°33'0 0.0
2018-Jun-05 02:30N 38°02' E 023°33'0 0.0
2018-Jun-05 02:00N 38°02' E 023°33'0 0.0
2018-Jun-05 01:30N 38°02' E 023°33'0 0.0
2018-Jun-05 01:00N 38°02' E 023°33'0 0.0
2018-Jun-05 00:30N 38°02' E 023°33'0 0.0
2018-Jun-05 00:00N 38°02' E 023°33'0 0.0
2018-Jun-04 23:30N 38°02' E 023°33'0 0.0
2018-Jun-04 23:00N 38°02' E 023°33'0 0.0
2018-Jun-04 22:30N 38°02' E 023°33'0 0.0
2018-Jun-04 22:00N 38°02' E 023°33'0 0.0
2018-Jun-04 21:30N 38°02' E 023°33'0 0.0
2018-Jun-04 21:00N 38°02' E 023°33'0 0.0
2018-Jun-04 20:30N 38°02' E 023°33'0 0.0
2018-Jun-04 20:00N 38°02' E 023°33'0 0.0
2018-Jun-04 19:30N 38°02' E 023°33'0 0.0
2018-Jun-04 19:00N 38°02' E 023°33'0 0.0
2018-Jun-04 18:30N 38°02' E 023°33'0 0.0
2018-Jun-04 18:00N 38°02' E 023°33'0 0.0
2018-Jun-04 17:30N 38°02' E 023°33'0 0.0
2018-Jun-04 17:00N 38°02' E 023°33'0 0.0
2018-Jun-04 16:30N 38°02' E 023°33'0 0.0
2018-Jun-04 16:00N 38°02' E 023°33'0 0.0
2018-Jun-04 15:30N 38°02' E 023°33'0 0.0
2018-Jun-04 15:00N 38°02' E 023°33'0 0.0
2018-Jun-04 14:30N 38°02' E 023°33'0 0.0
2018-Jun-04 14:00N 38°02' E 023°33'0 0.0
2018-Jun-04 13:30N 38°02' E 023°33'0 0.0
2018-Jun-04 13:00N 38°02' E 023°33'0 0.0
2018-Jun-04 12:30N 38°02' E 023°33'0 0.0
2018-Jun-04 12:00N 38°02' E 023°33'0 0.0
2018-Jun-04 11:30N 38°02' E 023°33'0 0.0
2018-Jun-04 11:00N 38°02' E 023°33'0 0.0
2018-Jun-04 10:30N 38°02' E 023°33'0 0.0
2018-Jun-04 10:00N 38°02' E 023°33'0 0.0
2018-Jun-04 09:30N 38°02' E 023°33'0 0.0
2018-Jun-04 09:00N 38°02' E 023°33'0 0.0
2018-Jun-04 08:30N 38°02' E 023°33'0 0.0
2018-Jun-04 08:00N 38°02' E 023°33'0 0.0
2018-Jun-04 07:30N 38°02' E 023°33'0 0.0
2018-Jun-04 07:00N 38°02' E 023°33'0 0.0
2018-Jun-04 06:30N 38°02' E 023°33'0 0.0
2018-Jun-04 06:00N 38°02' E 023°33'0 0.0
2018-Jun-04 05:30N 38°02' E 023°33'0 0.0
2018-Jun-04 05:01N 38°02' E 023°33'0 0.0
2018-Jun-04 04:30N 38°02' E 023°33'0 0.0
2018-Jun-04 04:00N 38°02' E 023°33'0 0.0
2018-Jun-04 03:30N 38°02' E 023°33'0 0.0
2018-Jun-04 03:00N 38°02' E 023°33'0 0.0
2018-Jun-04 02:30N 38°02' E 023°33'0 0.0
2018-Jun-04 02:00N 38°02' E 023°33'0 0.0
2018-Jun-04 01:30N 38°02' E 023°33'0 0.0
2018-Jun-04 01:01N 38°02' E 023°33'0 0.0
2018-Jun-04 00:30N 38°02' E 023°33'0 0.0
2018-Jun-04 00:00N 38°02' E 023°33'0 0.0
2018-Jun-03 23:30N 38°02' E 023°33'0 0.0
2018-Jun-03 23:00N 38°02' E 023°33'0 0.0
2018-Jun-03 22:30N 38°02' E 023°33'0 0.0
2018-Jun-03 22:00N 38°02' E 023°33'0 0.0
2018-Jun-03 21:30N 38°02' E 023°33'0 0.0
2018-Jun-03 20:59N 38°02' E 023°33'0 0.0
2018-Jun-03 20:30N 38°02' E 023°33'0 0.0
2018-Jun-03 20:00N 38°02' E 023°33'0 0.0
2018-Jun-03 19:31N 38°02' E 023°33'0 0.0
2018-Jun-03 19:00N 38°02' E 023°33'0 0.0
2018-Jun-03 18:30N 38°02' E 023°33'0 0.0
2018-Jun-03 18:00N 38°02' E 023°33'0 0.0
2018-Jun-03 17:30N 38°02' E 023°33'0 0.0
2018-Jun-03 17:00N 38°02' E 023°33'0 0.0
2018-Jun-03 16:30N 38°02' E 023°33'0 0.0
2018-Jun-03 16:00N 38°02' E 023°33'0 0.0
2018-Jun-03 15:30N 38°02' E 023°33'0 0.0
2018-Jun-03 15:00N 38°02' E 023°33'0 0.0
2018-Jun-03 14:30N 38°02' E 023°33'0 0.0
2018-Jun-03 14:00N 38°02' E 023°33'0 0.0
2018-Jun-03 13:30N 38°02' E 023°33'0 0.0
2018-Jun-03 13:00N 38°02' E 023°33'0 0.0
2018-Jun-03 12:30N 38°02' E 023°33'0 0.0
2018-Jun-03 12:00N 38°02' E 023°33'0 0.0
2018-Jun-03 11:30N 38°02' E 023°33'0 0.0
2018-Jun-03 11:00N 38°02' E 023°33'0 0.0
2018-Jun-03 10:30N 38°02' E 023°33'0 0.0
2018-Jun-03 10:00N 38°02' E 023°33'0 0.0
2018-Jun-03 09:30N 38°02' E 023°33'0 0.0
2018-Jun-03 09:00N 38°02' E 023°33'0 0.0
2018-Jun-03 08:30N 38°02' E 023°33'0 0.0
2018-Jun-03 08:01N 38°02' E 023°33'0 0.0
2018-Jun-03 07:30N 38°02' E 023°33'0 0.0
2018-Jun-03 07:00N 38°02' E 023°33'0 0.0
2018-Jun-03 06:30N 38°02' E 023°33'0 0.0
2018-Jun-03 06:00N 38°02' E 023°33'0 0.0
2018-Jun-03 05:30N 38°02' E 023°33'0 0.0
2018-Jun-03 05:00N 38°02' E 023°33'0 0.0
2018-Jun-03 04:30N 38°02' E 023°33'0 0.0
2018-Jun-03 04:00N 38°02' E 023°33'0 0.0
2018-Jun-03 03:30N 38°02' E 023°33'0 0.0
2018-Jun-03 03:00N 38°02' E 023°33'0 0.0
2018-Jun-03 02:31N 38°02' E 023°33'0 0.0
2018-Jun-03 02:00N 38°02' E 023°33'0 0.0
2018-Jun-03 01:30N 38°02' E 023°33'0 0.0
2018-Jun-03 01:00N 38°02' E 023°33'0 0.0
2018-Jun-03 00:30N 38°02' E 023°33'0 0.0
2018-Jun-03 00:00N 38°02' E 023°33'0 0.0
2018-Jun-02 23:31N 38°02' E 023°33'0 0.0
2018-Jun-02 23:00N 38°02' E 023°33'0 0.0
2018-Jun-02 22:31N 38°02' E 023°33'0 0.0
2018-Jun-02 22:01N 38°02' E 023°33'0 0.0
2018-Jun-02 21:30N 38°02' E 023°33'0 0.0
2018-Jun-02 21:00N 38°02' E 023°33'0 0.0
2018-Jun-02 20:30N 38°02' E 023°33'0 0.0
2018-Jun-02 20:01N 38°02' E 023°33'0 0.0
2018-Jun-02 19:30N 38°02' E 023°33'0 0.0
2018-Jun-02 19:00N 38°02' E 023°33'0 0.0
2018-Jun-02 18:30N 38°02' E 023°33'0 0.0
2018-Jun-02 18:00N 38°02' E 023°33'0 0.0
2018-Jun-02 17:30N 38°02' E 023°33'0 0.0
2018-Jun-02 17:00N 38°02' E 023°33'0 0.0
2018-Jun-02 16:30N 38°02' E 023°33'0 0.0
2018-Jun-02 16:01N 38°02' E 023°33'0 0.0
2018-Jun-02 15:31N 38°02' E 023°33'0 0.0
2018-Jun-02 15:00N 38°02' E 023°33'0 0.0
2018-Jun-02 14:29N 38°02' E 023°33'0 0.0
2018-Jun-02 13:59N 38°02' E 023°33'0 0.0
2018-Jun-02 13:30N 38°02' E 023°33'0 0.0
2018-Jun-02 13:00N 38°02' E 023°33'0 0.0
2018-Jun-02 12:30N 38°02' E 023°33'0 0.0
2018-Jun-02 12:00N 38°02' E 023°33'0 0.0
2018-Jun-02 11:30N 38°02' E 023°33'0 0.0
2018-Jun-02 11:01N 38°02' E 023°33'0 0.0
2018-Jun-02 10:30N 38°02' E 023°33'0 0.0
2018-Jun-02 10:01N 38°02' E 023°33'0 0.0
2018-Jun-02 09:30N 38°02' E 023°33'0 0.0
2018-Jun-02 09:00N 38°02' E 023°33'0 0.0
2018-Jun-02 08:29N 38°02' E 023°33'0 0.0
2018-Jun-02 08:00N 38°02' E 023°33'0 0.0
2018-Jun-02 07:30N 38°02' E 023°33'0 0.0
2018-Jun-02 07:00N 38°02' E 023°33'0 0.0
2018-Jun-02 06:30N 38°02' E 023°33'0 0.0
2018-Jun-02 05:58N 38°02' E 023°33'0 0.0
2018-Jun-02 05:30N 38°02' E 023°33'0 0.0
2018-Jun-02 05:00N 38°02' E 023°33'0 0.0
2018-Jun-02 04:30N 38°02' E 023°33'0 0.0
2018-Jun-02 04:00N 38°02' E 023°33'0 0.0
2018-Jun-02 03:30N 38°02' E 023°33'0 0.0
2018-Jun-02 03:00N 38°02' E 023°33'0 0.0
2018-Jun-02 02:30N 38°02' E 023°33'0 0.0
2018-Jun-02 02:00N 38°02' E 023°33'0 0.0
2018-Jun-02 01:30N 38°02' E 023°33'0 0.0
2018-Jun-02 01:00N 38°02' E 023°33'0 0.0
2018-Jun-02 00:30N 38°02' E 023°33'0 0.0
2018-Jun-02 00:00N 38°02' E 023°33'0 0.0
2018-Jun-01 23:30N 38°02' E 023°33'0 0.0
2018-Jun-01 23:00N 38°02' E 023°33'0 0.0
2018-Jun-01 22:30N 38°02' E 023°33'0 0.0
2018-Jun-01 22:00N 38°02' E 023°33'0 0.0
2018-Jun-01 21:30N 38°02' E 023°33'0 0.0
2018-Jun-01 21:00N 38°02' E 023°33'0 0.0
2018-Jun-01 20:30N 38°02' E 023°33'0 0.0
2018-Jun-01 20:00N 38°02' E 023°33'0 0.0
2018-Jun-01 19:30N 38°02' E 023°33'0 0.0
2018-Jun-01 19:00N 38°02' E 023°33'0 0.0
2018-Jun-01 18:30N 38°02' E 023°33'0 0.0
2018-Jun-01 17:59N 38°02' E 023°33'0 0.0
2018-Jun-01 17:30N 38°02' E 023°33'0 0.0
2018-Jun-01 17:00N 38°02' E 023°33'0 0.0
2018-Jun-01 16:30N 38°02' E 023°33'0 0.0
2018-Jun-01 16:00N 38°02' E 023°33'0 0.0
2018-Jun-01 15:30N 38°02' E 023°33'0 0.0
2018-Jun-01 15:00N 38°02' E 023°33'0 0.0
2018-Jun-01 14:30N 38°02' E 023°33'2 4.3
2018-Jun-01 14:00N 38°00' E 023°33'4 7.7
2018-Jun-01 13:30N 37°56' E 023°35'5 9.4
2018-Jun-01 13:00N 37°52' E 023°37'510.0
2018-Jun-01 12:30N 37°48' E 023°41'510.0
2018-Jun-01 12:00N 37°43' E 023°43'61 5.6
2018-Jun-01 01:15N 37°30' E 024°58'2 9.1
2018-Jun-01 01:00N 37°28' E 024°58'6 1.6
2018-May-31 21:34N 37°30' E 025°04'1 9.4
2018-May-31 21:28N 37°30' E 025°05'4 7.7
2018-May-31 20:59N 37°32' E 025°09'0 0.0
2018-May-31 20:30N 37°32' E 025°09'0 0.0
2018-May-31 20:00N 37°32' E 025°09'0 0.0
2018-May-31 19:30N 37°32' E 025°09'0 0.0
2018-May-31 19:00N 37°32' E 025°09'0 0.0
2018-May-31 18:30N 37°32' E 025°09'0 0.6
2018-May-31 18:00N 37°32' E 025°09'4 8.2
2018-May-31 17:30N 37°28' E 025°10'4 8.0
2018-May-31 17:00N 37°24' E 025°11'4 8.4
2018-May-31 16:30N 37°20' E 025°13'4 8.3
2018-May-31 15:59N 37°16' E 025°15'4 8.0
2018-May-31 15:30N 37°13' E 025°17'4 7.5
2018-May-31 15:00N 37°09' E 025°18'4 7.5
2018-May-31 14:30N 37°05' E 025°18'4 7.6
2018-May-31 14:00N 37°02' E 025°19'84 3.8
2018-May-30 15:50N 37°38' E 023°43'3 9.0
2018-May-30 15:30N 37°41' E 023°42'5 9.3
2018-May-30 15:00N 37°45' E 023°40'5 9.6
2018-May-30 14:30N 37°49' E 023°37'5 9.7
2018-May-30 14:00N 37°54' E 023°35'4 8.3
2018-May-30 13:30N 37°58' E 023°33'5 9.2
2018-May-30 13:00N 38°02' E 023°33'0 0.2
2018-May-30 12:31N 38°02' E 023°33'0 0.0
2018-May-30 12:00N 38°02' E 023°33'0 0.0
2018-May-30 11:30N 38°02' E 023°33'0 0.0
2018-May-30 11:00N 38°02' E 023°33'0 0.0
2018-May-30 10:30N 38°02' E 023°33'0 0.0
2018-May-30 10:00N 38°02' E 023°33'0 0.0
2018-May-30 09:30N 38°02' E 023°33'0 0.0
2018-May-30 09:00N 38°02' E 023°33'0 0.0
2018-May-30 08:30N 38°02' E 023°33'0 0.0
2018-May-30 07:59N 38°02' E 023°33'0 0.0
2018-May-30 07:31N 38°02' E 023°33'0 0.0
2018-May-30 07:00N 38°02' E 023°33'0 0.0
2018-May-30 06:30N 38°02' E 023°33'0 0.0
2018-May-30 06:00N 38°02' E 023°33'0 0.0
2018-May-30 05:30N 38°02' E 023°33'0 0.0
2018-May-30 05:00N 38°02' E 023°33'0 0.0
2018-May-30 04:30N 38°02' E 023°33'0 0.0
2018-May-30 04:00N 38°02' E 023°33'0 0.0
2018-May-30 03:30N 38°02' E 023°33'0 0.0
2018-May-30 03:00N 38°02' E 023°33'0 0.0
2018-May-30 02:30N 38°02' E 023°33'0 0.0
2018-May-30 02:00N 38°02' E 023°33'0 0.0
2018-May-30 01:30N 38°02' E 023°33'0 0.0
2018-May-30 01:00N 38°02' E 023°33'0 0.0
2018-May-30 00:30N 38°02' E 023°33'0 0.0
2018-May-30 00:00N 38°02' E 023°33'0 0.0
2018-May-29 23:30N 38°02' E 023°33'0 0.0
2018-May-29 23:00N 38°02' E 023°33'0 0.0
2018-May-29 22:30N 38°02' E 023°33'0 0.0
2018-May-29 22:00N 38°02' E 023°33'0 0.0
2018-May-29 21:30N 38°02' E 023°33'0 0.0
2018-May-29 21:00N 38°02' E 023°33'0 0.0
2018-May-29 20:30N 38°02' E 023°33'0 0.0
2018-May-29 20:00N 38°02' E 023°33'0 0.0
2018-May-29 19:30N 38°02' E 023°33'0 0.0
2018-May-29 19:00N 38°02' E 023°33'0 0.0
2018-May-29 18:30N 38°02' E 023°33'0 0.0
2018-May-29 18:00N 38°02' E 023°33'0 0.0
2018-May-29 17:30N 38°02' E 023°33'0 0.0
2018-May-29 17:00N 38°02' E 023°33'0 0.0
2018-May-29 16:30N 38°02' E 023°33'  

Dump ship's entire track history